Time;durP1;ratioP1;P1;durP2;ratioP2;P2;SDS_P1;SDS_P2;PMS_P1;PMS_P2;Temp;Humidity;BMP_temperature;BMP_pressure;BME280_temperature;BME280_humidity;BME280_pressure;Samples;Min_cycle;Max_cycle;Signal;HPM_P1;HPM_P2
2023/02/18 00:01:29;;;;;;;48.17;29.20;;;10.30;99.90;;;-144.05;90.81;56946.53;5035984;28;20037;-78
2023/02/18 00:03:59;;;;;;;47.80;29.05;;;10.20;99.90;;;-144.05;91.05;56959.28;5036216;28;20040;-78
2023/02/18 00:06:31;;;;;;;45.83;27.02;;;10.30;99.90;;;-144.05;90.12;56963.53;5036076;28;20109;-78
2023/02/18 00:09:00;;;;;;;48.35;28.85;;;10.30;99.90;;;-144.05;89.88;56957.16;5035736;28;20036;-78
2023/02/18 00:11:30;;;;;;;49.78;30.75;;;10.30;99.90;;;-144.05;89.84;56969.91;5034595;28;20029;-77
2023/02/18 00:14:01;;;;;;;50.80;29.10;;;10.30;99.90;;;-144.05;90.16;56940.16;5018202;28;20056;-78
2023/02/18 00:16:29;;;;;;;47.05;30.38;;;10.30;99.90;;;-144.05;90.45;56952.91;5036209;28;20037;-79
2023/02/18 00:19:03;;;;;;;52.60;31.25;;;10.30;99.90;;;-144.05;90.14;56948.66;5036214;28;20075;-78
2023/02/18 00:21:32;;;;;;;51.08;29.95;;;10.30;99.90;;;-144.05;89.79;56950.78;5036049;28;20041;-77
2023/02/18 00:23:59;;;;;;;50.20;30.77;;;10.30;99.90;;;-144.05;89.52;56948.66;5018213;28;20065;-78
2023/02/18 00:26:25;;;;;;;46.45;30.42;;;10.30;99.90;;;-144.05;89.56;56972.03;5018324;28;20065;-78
2023/02/18 00:28:53;;;;;;;46.03;30.27;;;10.30;99.90;;;-144.05;89.42;56944.41;5035567;28;20041;-78
2023/02/18 00:31:27;;;;;;;47.58;30.50;;;10.30;99.90;;;-144.05;89.44;56940.16;5018261;28;20029;-78
2023/02/18 00:33:55;;;;;;;53.00;30.15;;;10.30;99.90;;;-144.05;89.48;56978.41;5035266;28;20032;-78
2023/02/18 00:36:24;;;;;;;48.30;31.42;;;10.30;99.90;;;-144.05;89.32;56972.03;5035814;28;20029;-77
2023/02/18 00:38:56;;;;;;;48.55;30.77;;;10.30;99.90;;;-144.05;89.29;56980.53;5033868;28;20048;-78
2023/02/18 00:41:26;;;;;;;48.03;31.38;;;10.30;99.90;;;-144.05;89.23;56986.91;5035505;28;20050;-77
2023/02/18 00:43:52;;;;;;;51.25;30.88;;;10.30;99.90;;;-144.05;89.26;56963.53;5016345;28;20512;-78
2023/02/18 00:46:18;;;;;;;48.35;30.70;;;10.30;99.90;;;-144.05;89.27;56972.03;5034522;28;20060;-78
2023/02/18 00:48:44;;;;;;;47.25;31.00;;;10.30;99.90;;;-144.05;89.38;56974.16;5034482;28;20022;-78
2023/02/18 00:51:11;;;;;;;47.10;30.88;;;10.30;99.90;;;-144.05;88.53;56961.41;5034844;28;20035;-77
2023/02/18 00:53:38;;;;;;;45.72;29.38;;;10.40;99.90;;;-144.05;88.21;56955.03;5033805;28;20033;-78
2023/02/18 00:56:06;;;;;;;47.80;30.63;;;10.40;99.90;;;-144.05;88.49;56948.66;5032860;28;20180;-76
2023/02/18 00:58:33;;;;;;;49.85;31.40;;;10.40;99.90;;;-144.05;88.42;56957.16;5034654;28;20037;-76
2023/02/18 01:00:59;;;;;;;48.05;29.10;;;10.40;99.90;;;-144.05;89.19;56991.13;5035059;28;20037;-78
2023/02/18 01:03:26;;;;;;;48.20;29.77;;;10.40;99.90;;;-144.05;88.43;56982.66;5016702;28;20095;-77
2023/02/18 01:05:52;;;;;;;53.90;32.47;;;10.40;99.90;;;-144.05;88.37;56980.53;5034473;28;20034;-77
2023/02/18 01:08:21;;;;;;;56.70;32.28;;;10.40;99.90;;;-144.05;88.62;56967.78;5033352;28;20041;-78
2023/02/18 01:10:54;;;;;;;48.83;31.88;;;10.40;99.90;;;-144.05;88.33;56959.28;5034017;28;20083;-78
2023/02/18 01:13:21;;;;;;;49.78;31.38;;;10.50;99.90;;;-144.05;87.92;56955.03;5033359;28;20523;-78
2023/02/18 01:15:47;;;;;;;54.92;32.60;;;10.40;99.90;;;-144.05;88.45;56974.16;5033277;28;20061;-77
2023/02/18 01:18:14;;;;;;;51.05;31.27;;;10.40;99.90;;;-144.05;88.12;56976.28;5031378;28;20038;-77
2023/02/18 01:20:43;;;;;;;50.83;30.48;;;10.40;99.90;;;-144.05;87.98;56982.66;5056674;28;20028;-78
2023/02/18 01:23:10;;;;;;;49.83;30.30;;;10.40;99.90;;;-144.05;88.54;56955.03;5055755;28;20037;-75
2023/02/18 01:25:37;;;;;;;51.08;31.15;;;10.40;99.90;;;-144.05;88.76;56959.28;5056411;28;20061;-75
2023/02/18 01:28:06;;;;;;;54.90;31.80;;;10.40;99.90;;;-144.05;89.59;56969.91;5039076;28;20037;-74
2023/02/18 01:30:32;;;;;;;50.92;31.15;;;10.40;99.90;;;-144.05;88.68;56948.66;5056404;28;20044;-76
2023/02/18 01:32:59;;;;;;;46.85;28.27;;;10.40;99.90;;;-144.05;89.31;56946.53;5045483;28;20046;-78
2023/02/18 01:35:26;;;;;;;47.00;29.05;;;10.40;99.90;;;-144.05;89.52;56986.91;5032649;28;20484;-78
2023/02/18 01:37:52;;;;;;;46.63;26.27;;;10.40;99.90;;;-144.05;89.05;56976.28;5034331;28;20022;-78
2023/02/18 01:40:26;;;;;;;46.47;27.08;;;10.30;99.90;;;-144.05;88.78;56948.66;5015878;28;20033;-78
2023/02/18 01:42:52;;;;;;;46.40;26.83;;;10.40;99.90;;;-144.05;89.72;56969.91;5034195;28;20056;-78
2023/02/18 01:45:58;;;;;;;48.60;27.15;;;10.30;99.90;;;-144.05;89.92;56959.28;5034069;28;20444;-78
2023/02/18 01:48:38;;;;;;;41.92;23.67;;;10.30;99.90;;;-144.05;89.61;56940.16;5033551;28;20093;-78
2023/02/18 01:51:31;;;;;;;49.85;27.17;;;10.30;99.90;;;-144.05;89.43;56944.41;5033534;28;20068;-79
2023/02/18 01:54:13;;;;;;;51.83;26.50;;;10.30;99.90;;;-144.05;89.99;56967.78;5035377;28;20057;-78
2023/02/18 01:56:49;;;;;;;44.47;26.15;;;10.30;99.90;;;-144.05;89.72;56950.78;5016459;28;20043;-78
2023/02/18 01:59:45;;;;;;;48.65;26.17;;;10.30;99.90;;;-144.05;89.86;56961.41;5033692;28;20125;-78
2023/02/18 02:02:18;;;;;;;50.30;26.85;;;10.30;99.90;;;-144.05;89.86;56978.41;5033143;28;20040;-77
2023/02/18 02:04:47;;;;;;;47.55;25.70;;;10.30;99.90;;;-144.05;89.84;56955.03;5032977;28;20072;-78
2023/02/18 02:07:16;;;;;;;48.05;26.33;;;10.30;99.90;;;-144.05;90.39;56976.28;5032392;28;20033;-77
2023/02/18 02:09:44;;;;;;;45.22;25.63;;;10.30;99.90;;;-144.05;90.47;56952.91;5032326;28;20055;-76
2023/02/18 02:12:46;;;;;;;48.63;25.65;;;10.30;99.90;;;-144.05;90.64;56940.16;5032798;28;20028;-78
2023/02/18 02:15:31;;;;;;;51.20;25.75;;;10.30;99.90;;;-144.05;90.00;56976.28;5032718;28;20444;-77
2023/02/18 02:18:02;;;;;;;41.95;24.58;;;10.30;99.90;;;-144.05;90.34;56989.00;5032701;28;20393;-78
2023/02/18 02:21:08;;;;;;;41.50;23.35;;;10.30;99.90;;;-144.05;89.94;56946.53;5032403;28;20131;-78
2023/02/18 02:24:20;;;;;;;40.80;22.15;;;10.30;99.90;;;-144.05;89.88;56957.16;5033617;28;20029;-78
2023/02/18 02:27:27;;;;;;;42.58;24.05;;;10.30;99.90;;;-144.05;89.25;56957.16;5006865;28;20038;-76
2023/02/18 02:31:00;;;;;;;33.58;20.73;;;10.30;99.90;;;-144.05;89.99;56963.53;5035162;28;20037;-77
2023/02/18 02:34:04;;;;;;;34.10;21.65;;;10.40;99.90;;;-144.05;89.49;56957.16;5035908;28;20025;-78
2023/02/18 02:37:06;;;;;;;35.95;22.05;;;10.40;99.90;;;-144.05;90.04;56965.66;5036805;28;20037;-78
2023/02/18 02:40:01;;;;;;;33.80;20.13;;;10.30;99.90;;;-144.05;89.15;56959.28;5021188;28;20469;-78
2023/02/18 02:42:49;;;;;;;34.42;21.00;;;10.40;99.90;;;-144.05;89.86;56976.28;5036550;28;20049;-78
2023/02/18 02:46:02;;;;;;;35.30;19.85;;;10.40;99.90;;;-144.05;89.54;56976.28;5036185;28;20380;-78
2023/02/18 02:48:56;;;;;;;32.20;21.40;;;10.40;99.90;;;-144.05;89.21;56955.03;5037006;28;20037;-78
2023/02/18 02:51:40;;;;;;;36.55;20.80;;;10.40;99.90;;;-144.05;88.43;56978.41;5037383;28;20037;-78
2023/02/18 02:54:27;;;;;;;31.45;18.75;;;10.40;99.90;;;-144.05;88.00;56965.66;5036050;28;20025;-77
2023/02/18 02:57:13;;;;;;;35.63;20.55;;;10.40;99.90;;;-144.05;88.10;56963.53;5036905;28;20105;-78
2023/02/18 02:59:46;;;;;;;35.35;19.05;;;10.40;99.90;;;-144.05;88.00;56959.28;5015067;28;20056;-77
2023/02/18 03:02:45;;;;;;;30.55;19.08;;;10.40;99.90;;;-144.05;87.35;56946.53;5035926;28;20095;-78
2023/02/18 03:05:45;;;;;;;30.95;17.80;;;10.50;99.90;;;-144.05;87.46;56989.00;5035214;28;20033;-78
2023/02/18 03:08:50;;;;;;;25.38;16.25;;;10.50;99.90;;;-144.05;87.05;56967.78;5035538;28;20378;-78
2023/02/18 03:11:17;;;;;;;20.23;13.45;;;10.50;99.90;;;-144.05;87.02;56963.53;5035092;28;20107;-78
2023/02/18 03:13:49;;;;;;;21.65;14.50;;;10.50;99.90;;;-144.05;87.29;56967.78;5035876;28;20096;-78
2023/02/18 03:16:30;;;;;;;23.30;14.02;;;10.50;99.90;;;-144.05;87.48;56957.16;5033810;28;20030;-78
2023/02/18 03:19:19;;;;;;;22.45;13.25;;;10.50;99.90;;;-144.05;87.30;56972.03;5035081;28;20120;-78
2023/02/18 03:21:57;;;;;;;24.08;14.27;;;10.50;99.90;;;-144.05;87.57;56957.16;5035449;28;20034;-78
2023/02/18 03:24:34;;;;;;;20.27;12.48;;;10.50;99.90;;;-144.05;87.22;56963.53;5035285;28;20044;-77
2023/02/18 03:27:28;;;;;;;20.02;12.10;;;10.50;99.90;;;-144.05;87.57;56950.78;5035684;28;20030;-78
2023/02/18 03:30:15;;;;;;;18.05;11.68;;;10.50;99.90;;;-144.05;87.70;56978.41;5035159;28;20029;-78
2023/02/18 03:32:44;;;;;;;22.95;11.73;;;10.50;99.90;;;-144.05;87.93;56961.41;5035763;28;20029;-77
2023/02/18 03:35:18;;;;;;;17.65;11.23;;;10.40;99.90;;;-144.05;89.03;56997.50;5035414;28;20021;-78
2023/02/18 03:37:59;;;;;;;18.92;12.02;;;10.40;99.90;;;-144.05;89.39;56957.16;5035855;28;20092;-76
2023/02/18 03:40:30;;;;;;;17.23;11.55;;;10.40;99.90;;;-144.05;89.34;56948.66;5034961;28;20067;-78
2023/02/18 03:42:59;;;;;;;20.17;10.80;;;10.30;99.90;;;-144.05;89.12;56944.41;5035301;28;20052;-78
2023/02/18 03:45:27;;;;;;;18.15;11.30;;;10.30;99.90;;;-144.05;88.91;56961.41;5035192;28;20037;-78
2023/02/18 03:47:53;;;;;;;17.73;11.20;;;10.30;99.90;;;-144.05;89.30;56946.53;5035203;28;20033;-77
2023/02/18 03:50:19;;;;;;;20.75;11.98;;;10.30;99.90;;;-144.05;89.12;56978.41;5034910;28;20030;-77
2023/02/18 03:52:45;;;;;;;18.88;11.98;;;10.30;99.90;;;-144.05;89.68;56955.03;5035116;28;20040;-78
2023/02/18 03:55:12;;;;;;;18.48;10.43;;;10.30;99.90;;;-144.05;90.16;56963.53;5035170;28;20076;-77
2023/02/18 03:57:38;;;;;;;22.58;11.52;;;10.30;99.90;;;-144.05;90.30;56978.41;5035451;28;20079;-78
2023/02/18 04:00:06;;;;;;;17.05;11.25;;;10.30;99.90;;;-144.05;90.80;56963.53;5035549;28;20037;-77
2023/02/18 04:02:33;;;;;;;17.23;11.25;;;10.30;99.90;;;-144.05;90.89;56965.66;5035553;28;20037;-78
2023/02/18 04:04:59;;;;;;;18.40;11.40;;;10.30;99.90;;;-144.05;90.34;56965.66;5034748;28;20064;-77
2023/02/18 04:07:25;;;;;;;20.25;11.68;;;10.30;99.90;;;-144.05;90.75;56959.28;5035073;28;20029;-78
2023/02/18 04:09:51;;;;;;;17.98;11.73;;;10.30;99.90;;;-144.05;91.20;56980.53;5035443;28;20033;-77
2023/02/18 04:12:17;;;;;;;17.60;11.45;;;10.30;99.90;;;-144.05;90.50;56967.78;5035109;28;20091;-78
2023/02/18 04:14:43;;;;;;;16.77;11.60;;;10.30;99.90;;;-144.05;90.42;56944.41;5034320;28;20040;-78
2023/02/18 04:17:09;;;;;;;17.95;11.55;;;10.30;99.90;;;-144.05;91.45;56965.66;5034075;28;20037;-78
2023/02/18 04:19:35;;;;;;;19.30;11.63;;;10.40;99.90;;;-144.05;91.50;56969.91;5033602;28;20071;-78
2023/02/18 04:22:01;;;;;;;22.65;11.35;;;10.30;99.90;;;-144.05;91.04;56967.78;5033859;28;20384;-79
2023/02/18 04:24:27;;;;;;;20.35;12.48;;;10.30;99.90;;;-144.05;91.13;56948.66;5034282;28;20052;-78
2023/02/18 04:26:53;;;;;;;22.35;12.20;;;10.30;99.90;;;-144.05;90.87;56969.91;5016742;28;20098;-78
2023/02/18 04:29:19;;;;;;;21.77;12.25;;;10.30;99.90;;;-144.05;91.28;56957.16;5033916;28;20043;-78
2023/02/18 04:31:45;;;;;;;20.13;11.52;;;10.30;99.90;;;-144.05;91.19;56972.03;5034301;28;20029;-79
2023/02/18 04:34:10;;;;;;;19.35;12.02;;;10.30;99.90;;;-144.05;91.43;56952.91;5017489;28;20045;-78
2023/02/18 04:36:36;;;;;;;22.85;12.45;;;10.30;99.90;;;-144.05;90.93;56976.28;5034121;28;20032;-77
2023/02/18 04:39:03;;;;;;;22.55;12.57;;;10.30;99.90;;;-144.05;91.28;56959.28;5034606;28;20033;-78
2023/02/18 04:41:29;;;;;;;21.13;11.73;;;10.30;99.90;;;-144.05;91.61;56997.50;5034976;28;20021;-78
2023/02/18 04:43:55;;;;;;;21.00;12.25;;;10.30;99.90;;;-144.05;91.79;56931.66;5034291;28;20029;-78
2023/02/18 04:46:22;;;;;;;18.00;10.82;;;10.30;99.90;;;-144.05;91.57;56950.78;5034537;28;20044;-78
2023/02/18 04:48:48;;;;;;;21.63;12.15;;;10.30;99.90;;;-144.05;91.68;56978.41;5033435;28;20053;-77
2023/02/18 04:51:14;;;;;;;18.95;10.88;;;10.30;99.90;;;-144.05;91.92;56967.78;5034586;28;20029;-78
2023/02/18 04:53:40;;;;;;;18.80;10.55;;;10.30;99.90;;;-144.05;91.96;56997.50;5035358;28;20395;-78
2023/02/18 04:56:06;;;;;;;21.25;10.77;;;10.40;99.90;;;-144.05;91.86;56991.13;5034517;28;20036;-77
2023/02/18 04:58:31;;;;;;;14.77;9.70;;;10.40;99.90;;;-144.05;92.24;56969.91;5035412;28;20030;-78
2023/02/18 05:01:04;;;;;;;15.45;9.00;;;10.30;99.90;;;-144.05;91.78;56957.16;5035547;28;20029;-78
2023/02/18 05:03:31;;;;;;;13.48;8.75;;;10.40;99.90;;;-144.05;92.08;56969.91;5034697;28;20562;-79
2023/02/18 05:05:57;;;;;;;12.10;7.57;;;10.30;99.90;;;-144.05;91.79;56972.03;5034619;28;20042;-78
2023/02/18 05:08:24;;;;;;;14.38;7.18;;;10.30;99.90;;;-144.05;91.52;56957.16;5034490;28;20031;-78
2023/02/18 05:10:50;;;;;;;13.32;6.80;;;10.30;99.90;;;-144.05;92.52;56980.53;5034885;28;20386;-77
2023/02/18 05:13:16;;;;;;;9.88;5.72;;;10.30;99.90;;;-144.05;91.71;56989.00;5035100;28;20052;-78
2023/02/18 05:15:42;;;;;;;9.07;5.30;;;10.30;99.90;;;-144.05;92.11;56980.53;5034846;28;20032;-78
2023/02/18 05:18:08;;;;;;;9.98;5.55;;;10.30;99.90;;;-144.05;93.02;56965.66;5034810;28;20029;-79
2023/02/18 05:20:34;;;;;;;8.63;4.78;;;10.30;99.90;;;-144.05;93.33;56957.16;5035336;28;20079;-78
2023/02/18 05:23:00;;;;;;;9.52;4.95;;;10.30;99.90;;;-144.05;92.74;56955.03;5036467;28;20041;-78
2023/02/18 05:25:26;;;;;;;6.57;4.07;;;10.20;99.90;;;-144.05;93.08;56957.16;5036016;28;20085;-78
2023/02/18 05:27:51;;;;;;;5.80;3.92;;;10.20;99.90;;;-144.05;93.20;56955.03;5035949;28;20025;-78
2023/02/18 05:30:18;;;;;;;5.38;3.13;;;10.20;99.90;;;-144.05;93.41;56957.16;5017160;28;20109;-78
2023/02/18 05:32:44;;;;;;;4.70;2.50;;;10.20;99.90;;;-144.05;93.51;56963.53;5035086;28;20131;-76
2023/02/18 05:35:10;;;;;;;5.70;2.97;;;10.20;99.90;;;-144.05;93.39;56976.28;5035466;28;20039;-78
2023/02/18 05:37:36;;;;;;;4.85;2.80;;;10.20;99.90;;;-144.05;93.32;56978.41;5016978;28;20515;-77
2023/02/18 05:40:03;;;;;;;3.28;2.33;;;10.20;99.90;;;-144.05;93.10;56942.28;5034749;28;20041;-79
2023/02/18 05:42:31;;;;;;;6.65;2.53;;;10.20;99.90;;;-144.05;92.94;56967.78;5034533;28;20451;-78
2023/02/18 05:44:58;;;;;;;2.75;1.98;;;10.20;99.90;;;-144.05;93.56;56965.66;5034400;28;20045;-78
2023/02/18 05:47:24;;;;;;;2.53;1.83;;;10.20;99.90;;;-144.05;93.49;56967.78;5035536;28;20030;-76
2023/02/18 05:49:50;;;;;;;2.83;1.88;;;10.20;99.90;;;-144.05;93.53;56961.41;5035260;28;20442;-76
2023/02/18 05:52:17;;;;;;;2.90;1.77;;;10.10;99.90;;;-144.05;93.86;56955.03;5035800;28;20056;-80
2023/02/18 05:54:43;;;;;;;3.00;1.58;;;10.10;99.90;;;-144.05;93.19;56991.13;5036167;28;20025;-79
2023/02/18 05:57:14;;;;;;;2.30;2.00;;;10.10;99.90;;;-144.05;93.13;56955.03;5035306;28;20025;-78
2023/02/18 05:59:40;;;;;;;2.15;1.63;;;10.10;99.90;;;-144.05;93.05;56955.03;5035340;28;20405;-77
2023/02/18 06:02:06;;;;;;;2.13;1.58;;;10.10;99.90;;;-144.05;93.12;56978.41;5038575;28;20029;-76
2023/02/18 06:04:32;;;;;;;3.58;2.10;;;10.10;99.90;;;-144.05;93.71;56950.78;5039450;28;20037;-78
2023/02/18 06:06:58;;;;;;;1.95;1.50;;;10.10;99.90;;;-144.05;93.16;56982.66;5038840;28;20123;-78
2023/02/18 06:09:24;;;;;;;2.92;1.60;;;10.10;99.90;;;-144.05;93.27;56967.78;5038042;28;20056;-79
2023/02/18 06:11:50;;;;;;;1.65;1.45;;;10.10;99.90;;;-144.05;92.71;56957.16;5020844;28;20389;-78
2023/02/18 06:14:17;;;;;;;1.92;1.45;;;10.10;99.90;;;-144.05;92.77;56989.00;5038486;28;20048;-78
2023/02/18 06:16:42;;;;;;;4.50;1.88;;;10.10;99.90;;;-144.05;92.88;56969.91;5046538;28;20049;-77
2023/02/18 06:19:08;;;;;;;2.72;1.42;;;10.10;99.90;;;-144.05;92.87;56959.28;5041473;28;20095;-77
2023/02/18 06:21:34;;;;;;;1.95;1.40;;;10.10;99.90;;;-144.05;92.81;56955.03;5050148;28;20032;-76
2023/02/18 06:24:00;;;;;;;1.90;1.23;;;10.10;99.90;;;-144.05;92.52;56957.16;5043524;28;20061;-77
2023/02/18 06:26:26;;;;;;;2.92;1.60;;;10.10;99.90;;;-144.05;92.26;56984.78;5039427;28;20065;-78
2023/02/18 06:28:52;;;;;;;2.97;1.98;;;10.10;99.90;;;-144.05;92.65;56967.78;5038442;28;20055;-77
2023/02/18 06:31:18;;;;;;;1.50;1.05;;;10.10;99.90;;;-144.05;92.52;56965.66;5037441;28;20029;-79
2023/02/18 06:33:44;;;;;;;3.22;1.80;;;10.00;99.90;;;-144.05;92.96;56993.25;5019219;28;20508;-76
2023/02/18 06:36:12;;;;;;;2.13;1.60;;;10.10;99.90;;;-144.05;92.74;56974.16;5036571;28;20485;-78
2023/02/18 06:38:44;;;;;;;3.17;1.63;;;10.10;99.90;;;-144.05;92.26;56980.53;5036488;28;20108;-76
2023/02/18 06:41:12;;;;;;;2.50;1.83;;;10.10;99.90;;;-144.05;92.46;56961.41;5042249;28;20029;-78
2023/02/18 06:43:39;;;;;;;2.33;1.88;;;10.10;99.90;;;-144.05;93.00;56961.41;5049691;28;20014;-79
2023/02/18 06:46:05;;;;;;;2.50;1.90;;;10.00;99.90;;;-144.05;93.03;56993.25;5040836;28;20065;-79
2023/02/18 06:48:32;;;;;;;2.95;2.08;;;10.10;99.90;;;-144.05;93.14;56963.53;5040050;28;20042;-78
2023/02/18 06:50:58;;;;;;;2.42;1.85;;;10.10;99.90;;;-144.05;93.04;56982.66;5039941;28;20088;-77
2023/02/18 06:53:25;;;;;;;3.28;2.60;;;10.00;99.90;;;-144.05;92.98;56969.91;5040857;28;20025;-78
2023/02/18 06:55:51;;;;;;;4.20;2.40;;;10.10;99.90;;;-144.05;93.48;56963.53;5042869;28;20073;-77
2023/02/18 06:58:17;;;;;;;3.38;2.53;;;10.00;99.90;;;-144.05;92.35;56944.41;5028083;28;20038;-79
2023/02/18 07:00:43;;;;;;;4.10;2.30;;;10.10;99.90;;;-144.05;92.73;56957.16;5052800;28;20029;-75
2023/02/18 07:03:14;;;;;;;3.92;2.00;;;10.10;99.90;;;-144.05;93.10;56976.28;5053644;28;20036;-78
2023/02/18 07:05:42;;;;;;;2.88;2.17;;;10.10;99.90;;;-144.05;92.75;56963.53;5041195;28;20040;-78
2023/02/18 07:08:09;;;;;;;3.00;2.28;;;10.00;99.90;;;-144.05;93.92;56955.03;5040950;28;20397;-80
2023/02/18 07:10:35;;;;;;;3.78;2.65;;;10.00;99.90;;;-144.05;93.09;56944.41;5040118;28;20029;-79
2023/02/18 07:13:01;;;;;;;4.50;2.28;;;10.10;99.90;;;-144.05;93.02;56976.28;5038132;28;20044;-76
2023/02/18 07:15:26;;;;;;;3.42;2.13;;;10.00;99.90;;;-144.05;93.00;56969.91;5037907;28;20036;-76
2023/02/18 07:17:53;;;;;;;4.60;2.10;;;10.00;99.90;;;-144.05;93.65;56986.91;5019473;28;20396;-76
2023/02/18 07:20:21;;;;;;;3.75;2.42;;;10.00;99.90;;;-144.05;93.77;56974.16;5036987;28;20033;-77
2023/02/18 07:22:47;;;;;;;5.10;2.42;;;10.00;99.90;;;-144.05;92.64;56965.66;5037338;28;20120;-77
2023/02/18 07:25:14;;;;;;;4.05;2.60;;;10.00;99.90;;;-144.05;92.78;56955.03;5039076;28;20444;-77
2023/02/18 07:27:40;;;;;;;3.70;2.30;;;10.00;99.90;;;-144.05;92.24;56952.91;5021761;28;20393;-78
2023/02/18 07:30:07;;;;;;;2.70;2.20;;;10.00;99.90;;;-144.05;92.46;56963.53;5039407;28;20029;-80
2023/02/18 07:32:34;;;;;;;3.22;2.25;;;10.00;99.90;;;-144.05;92.44;56959.28;5036612;28;20402;-79
2023/02/18 07:35:00;;;;;;;2.83;1.98;;;10.00;99.90;;;-144.05;92.06;56957.16;5038019;28;20034;-79
2023/02/18 07:37:26;;;;;;;2.67;2.20;;;10.00;99.90;;;-144.05;91.69;56948.66;5037232;28;20026;-79
2023/02/18 07:39:52;;;;;;;6.13;2.83;;;10.00;99.90;;;-144.05;92.42;56963.53;5038708;28;20048;-76
2023/02/18 07:42:17;;;;;;;4.50;2.67;;;10.00;99.90;;;-144.05;92.36;56955.03;5038721;28;20037;-77
2023/02/18 07:44:43;;;;;;;7.82;2.83;;;10.00;99.90;;;-144.05;92.10;56965.66;5039258;28;20075;-78
2023/02/18 07:47:16;;;;;;;4.15;2.70;;;10.00;99.90;;;-144.05;91.68;56963.53;5037290;28;20060;-78
2023/02/18 07:49:42;;;;;;;4.13;2.70;;;10.00;99.90;;;-144.05;92.28;56963.53;5035958;28;20071;-77
2023/02/18 07:52:08;;;;;;;3.05;2.58;;;10.00;99.90;;;-144.05;92.71;56959.28;5036611;28;20022;-79
2023/02/18 07:54:34;;;;;;;3.03;2.40;;;10.00;99.90;;;-144.05;91.78;56989.00;5037198;28;20052;-78
2023/02/18 07:57:00;;;;;;;3.97;2.10;;;10.00;99.90;;;-144.05;91.36;56963.53;5038391;28;20377;-79
2023/02/18 07:59:26;;;;;;;5.13;2.60;;;10.00;99.90;;;-144.05;91.17;56938.03;5038701;28;20099;-79
2023/02/18 08:01:52;;;;;;;6.28;2.90;;;10.00;99.90;;;-144.05;91.22;56952.91;5037969;28;20080;-78
2023/02/18 08:06:48;;;;;;;5.00;3.05;;;10.00;99.90;;;-144.05;91.11;56948.66;5006877;28;20050;-77
2023/02/18 08:09:16;;;;;;;4.43;3.15;;;10.00;99.90;;;-144.05;90.12;56976.28;5010141;28;20030;-78
2023/02/18 08:11:42;;;;;;;4.05;2.70;;;10.00;99.90;;;-144.05;90.21;56957.16;5009940;28;20030;-78
2023/02/18 08:14:08;;;;;;;3.83;3.00;;;10.00;99.90;;;-144.05;90.23;56963.53;5005263;28;20109;-78
2023/02/18 08:16:34;;;;;;;3.72;2.83;;;10.00;99.90;;;-144.05;89.54;56984.78;4999093;28;20034;-77
2023/02/18 08:19:04;;;;;;;5.00;2.30;;;10.10;99.90;;;-144.05;89.16;56969.91;4998258;28;20114;-77
2023/02/18 08:21:31;;;;;;;4.45;2.75;;;10.10;99.90;;;-144.05;89.18;56955.03;4998790;28;20038;-78
2023/02/18 08:23:58;;;;;;;3.38;1.40;;;10.10;99.90;;;-144.05;89.66;56972.03;4997220;28;20509;-77
2023/02/18 08:26:25;;;;;;;1.65;1.25;;;10.10;99.90;;;-144.05;89.95;56974.16;4997769;28;20092;-79
2023/02/18 08:28:51;;;;;;;12.60;6.63;;;10.10;99.90;;;-144.05;90.17;56969.91;4997196;28;20038;-78
2023/02/18 08:31:26;;;;;;;3.22;1.38;;;10.10;99.90;;;-144.05;88.86;56969.91;4996813;28;20088;-77
2023/02/18 08:33:55;;;;;;;6.07;3.17;;;10.20;99.90;;;-144.05;89.55;56980.53;4996734;28;20038;-79
2023/02/18 08:36:22;;;;;;;1.30;0.85;;;10.10;99.90;;;-144.05;89.03;56963.53;4998008;28;20114;-77
2023/02/18 08:38:48;;;;;;;2.45;0.90;;;10.20;99.90;;;-144.05;88.66;56952.91;4997747;28;20022;-80
2023/02/18 08:41:15;;;;;;;2.17;0.85;;;10.10;99.90;;;-144.05;87.78;56982.66;4996458;28;20030;-77
2023/02/18 08:43:41;;;;;;;2.28;1.25;;;10.10;99.90;;;-144.05;87.64;56967.78;4979723;28;20159;-77
2023/02/18 08:46:07;;;;;;;1.15;1.05;;;10.10;99.90;;;-144.05;87.98;56963.53;4993776;28;20038;-77
2023/02/18 08:48:33;;;;;;;1.45;0.90;;;10.10;99.90;;;-144.05;87.18;56965.66;4996435;28;20482;-76
2023/02/18 08:50:59;;;;;;;1.67;1.02;;;10.20;99.90;;;-144.05;86.55;56991.13;4996773;28;20045;-79
2023/02/18 08:53:26;;;;;;;1.15;0.70;;;10.20;99.90;;;-144.05;86.30;56955.03;4997501;28;20090;-76
2023/02/18 08:55:52;;;;;;;3.35;1.00;;;10.20;99.90;;;-144.05;86.32;56974.16;4977193;28;20034;-76
2023/02/18 08:58:17;;;;;;;1.83;0.90;;;10.30;99.90;;;-144.05;86.75;56974.16;4993842;28;20097;-76
2023/02/18 09:00:44;;;;;;;1.05;0.68;;;10.30;99.90;;;-144.05;86.68;56959.28;4995938;28;20034;-77
2023/02/18 09:03:14;;;;;;;1.10;0.88;;;10.20;99.90;;;-144.05;86.52;56991.13;4997083;28;20034;-77
2023/02/18 09:05:41;;;;;;;2.42;0.90;;;10.20;99.90;;;-144.05;86.39;56976.28;4997953;28;20035;-77
2023/02/18 09:08:07;;;;;;;4.47;1.40;;;10.10;99.90;;;-144.05;85.61;56978.41;4995271;28;20057;-78
2023/02/18 09:10:34;;;;;;;2.10;1.00;;;10.00;99.90;;;-144.05;85.91;56976.28;4979737;28;20098;-79
2023/02/18 09:12:59;;;;;;;5.38;1.55;;;10.00;99.90;;;-144.05;84.86;56957.16;4979683;28;20107;-78
2023/02/18 09:15:25;;;;;;;5.22;1.70;;;9.90;99.90;;;-144.05;85.47;56974.16;4997610;28;20027;-77
2023/02/18 09:17:51;;;;;;;5.57;2.00;;;9.90;99.90;;;-144.05;85.57;56965.66;4997544;28;20116;-78
2023/02/18 09:20:17;;;;;;;6.72;2.40;;;9.80;99.90;;;-144.05;85.84;56965.66;4996804;28;20038;-77
2023/02/18 09:22:43;;;;;;;6.57;2.20;;;9.80;99.90;;;-144.05;85.59;56974.16;4996569;28;20540;-75
2023/02/18 09:25:09;;;;;;;5.10;2.60;;;9.80;99.90;;;-144.05;85.33;56976.28;4996919;28;20026;-77
2023/02/18 09:27:35;;;;;;;7.82;2.70;;;9.70;99.90;;;-144.05;84.93;56959.28;4996155;28;20117;-76
2023/02/18 09:30:01;;;;;;;6.97;2.58;;;9.70;99.90;;;-144.05;84.81;56980.53;4978524;28;20030;-77
2023/02/18 09:32:27;;;;;;;7.72;2.28;;;9.70;99.90;;;-144.05;84.00;57016.63;4995398;28;20034;-78
2023/02/18 09:34:53;;;;;;;6.88;3.10;;;9.70;99.90;;;-144.05;83.55;56989.00;4994147;28;20031;-75
2023/02/18 09:37:18;;;;;;;10.73;2.65;;;9.80;99.90;;;-144.05;83.12;56967.78;4994278;28;20054;-76
2023/02/18 09:39:44;;;;;;;9.82;2.40;;;9.80;99.90;;;-144.05;83.47;56974.16;4994206;28;20046;-78
2023/02/18 09:42:19;;;;;;;9.23;3.05;;;9.80;99.90;;;-144.05;82.66;56989.00;4996029;28;20052;-77
2023/02/18 09:45:01;;;;;;;6.20;2.57;;;9.80;99.90;;;-144.05;83.21;56969.91;4995593;28;20026;-77
2023/02/18 09:47:42;;;;;;;8.98;3.35;;;9.80;99.90;;;-144.05;82.27;56955.03;4996153;28;20768;-78
2023/02/18 09:50:24;;;;;;;5.22;2.17;;;9.80;99.90;;;-144.05;82.39;56952.91;4995055;28;20056;-78
2023/02/18 09:52:52;;;;;;;6.97;3.13;;;9.90;99.90;;;-144.05;82.00;56986.91;4996658;28;20076;-78
2023/02/18 09:55:35;;;;;;;6.18;2.92;;;9.90;99.90;;;-144.05;82.73;56978.41;4979453;28;20027;-78
2023/02/18 09:58:31;;;;;;;9.30;3.40;;;9.80;99.90;;;-144.05;82.73;56965.66;4996654;28;20049;-78
2023/02/18 10:01:23;;;;;;;;;;;9.80;99.90;;;-144.05;82.11;56980.53;4981522;28;20111;-77
2023/02/18 10:03:50;;;;;;;9.45;2.95;;;9.80;99.90;;;-144.05;82.23;56952.91;4980341;28;19917;-77
2023/02/18 10:06:34;;;;;;;8.48;3.00;;;9.70;99.90;;;-144.05;83.34;56993.25;4997266;28;20026;-77
2023/02/18 10:09:18;;;;;;;12.63;3.50;;;9.80;99.90;;;-144.05;83.24;56982.66;4997049;28;20072;-77
2023/02/18 10:11:50;;;;;;;8.02;3.58;;;9.70;99.90;;;-144.05;84.24;56980.53;4979702;28;20108;-78
2023/02/18 10:14:18;;;;;;;12.40;4.03;;;9.70;99.90;;;-144.05;84.20;56976.28;4998024;28;20027;-76
2023/02/18 10:16:49;;;;;;;9.20;3.95;;;9.60;99.90;;;-144.05;84.53;56993.25;4997188;28;20041;-77
2023/02/18 10:19:33;;;;;;;12.45;4.03;;;9.60;99.90;;;-144.05;84.43;56959.28;4997483;28;20034;-77